createdAt,value
2017-07-27T00:00:26.918Z,993.34
2017-07-27T00:01:28.341Z,993.24
2017-07-27T00:02:29.760Z,993.22
2017-07-27T00:03:31.187Z,993.14
2017-07-27T00:04:32.615Z,993.09
2017-07-27T00:05:34.038Z,992.99
2017-07-27T00:06:35.470Z,992.89
2017-07-27T00:07:36.900Z,992.83
2017-07-27T00:08:38.327Z,992.76
2017-07-27T00:09:39.753Z,992.63
2017-07-27T00:10:41.174Z,992.65
2017-07-27T00:11:42.603Z,992.50
2017-07-27T00:12:44.023Z,992.41
2017-07-27T00:13:45.448Z,992.38
2017-07-27T00:14:46.873Z,992.36
2017-07-27T00:15:48.306Z,992.33
2017-07-27T00:16:49.730Z,992.27
2017-07-27T00:17:51.159Z,992.21
2017-07-27T00:18:52.581Z,992.22
2017-07-27T00:19:54.020Z,992.14
2017-07-27T00:20:55.440Z,992.08
2017-07-27T00:21:56.864Z,992.06
2017-07-27T00:22:58.290Z,992.01
2017-07-27T00:23:59.713Z,992.00
2017-07-27T00:25:01.145Z,991.92
2017-07-27T00:26:02.566Z,991.96
2017-07-27T00:27:03.989Z,991.89
2017-07-27T00:28:05.411Z,991.86
2017-07-27T00:29:06.838Z,991.75
2017-07-27T00:30:08.271Z,991.79
2017-07-27T00:31:09.695Z,991.74
2017-07-27T00:32:11.114Z,991.77
2017-07-27T00:33:12.538Z,991.72
2017-07-27T00:34:13.968Z,991.72
2017-07-27T00:35:15.400Z,991.73
2017-07-27T00:36:16.820Z,991.63
2017-07-27T00:37:18.241Z,991.61
2017-07-27T00:38:19.661Z,991.59
2017-07-27T00:39:21.089Z,991.57
2017-07-27T00:40:22.513Z,991.59
2017-07-27T00:41:23.939Z,991.56
2017-07-27T00:42:25.366Z,991.57
2017-07-27T00:43:26.805Z,991.54
2017-07-27T00:44:28.232Z,991.49
2017-07-27T00:45:29.668Z,991.49
2017-07-27T00:46:31.095Z,991.47
2017-07-27T00:47:32.523Z,991.47
2017-07-27T00:48:33.945Z,991.40
2017-07-27T00:49:35.444Z,991.40
2017-07-27T00:50:36.870Z,991.39
2017-07-27T00:51:38.291Z,991.31
2017-07-27T00:52:39.758Z,991.31
2017-07-27T00:53:41.190Z,991.26
2017-07-27T00:54:42.603Z,991.30
2017-07-27T00:55:44.072Z,991.32
2017-07-27T00:56:45.505Z,991.38
2017-07-27T00:57:46.926Z,991.35
2017-07-27T00:58:48.351Z,991.38
2017-07-27T00:59:49.776Z,991.31
2017-07-27T01:00:51.199Z,991.28
2017-07-27T01:01:52.623Z,991.27
2017-07-27T01:02:54.048Z,991.27
2017-07-27T01:03:55.471Z,991.25
2017-07-27T01:04:56.906Z,991.20
2017-07-27T01:05:58.330Z,991.19
2017-07-27T01:06:59.751Z,991.19
2017-07-27T01:08:01.180Z,991.18
2017-07-27T01:09:02.605Z,991.18
2017-07-27T01:10:04.037Z,991.16
2017-07-27T01:11:05.468Z,991.18
2017-07-27T01:12:06.886Z,991.21
2017-07-27T01:13:08.310Z,991.23
2017-07-27T01:14:09.740Z,991.28
2017-07-27T01:15:11.175Z,991.25
2017-07-27T01:16:12.593Z,991.25
2017-07-27T01:17:14.013Z,991.21
2017-07-27T01:18:16.086Z,991.21
2017-07-27T01:19:17.520Z,991.19
2017-07-27T01:20:18.933Z,991.20
2017-07-27T01:21:20.363Z,991.19
2017-07-27T01:22:21.785Z,991.14
2017-07-27T01:23:23.210Z,991.17
2017-07-27T01:24:24.635Z,991.12
2017-07-27T01:25:26.061Z,991.15
2017-07-27T01:26:27.486Z,991.17
2017-07-27T01:27:28.916Z,991.22
2017-07-27T01:28:30.344Z,991.15
2017-07-27T01:29:31.857Z,991.14
2017-07-27T01:30:33.261Z,991.12
2017-07-27T01:31:34.688Z,991.14
2017-07-27T01:32:36.134Z,991.06
2017-07-27T01:33:37.557Z,991.06
2017-07-27T01:34:38.973Z,991.05
2017-07-27T01:35:40.397Z,991.11
2017-07-27T01:36:41.825Z,991.10
2017-07-27T01:37:43.249Z,991.10
2017-07-27T01:38:44.672Z,991.09
2017-07-27T01:39:46.096Z,991.03
2017-07-27T01:40:47.520Z,991.05
2017-07-27T01:41:48.946Z,991.01
2017-07-27T01:42:50.372Z,990.99
2017-07-27T01:43:51.800Z,990.98
2017-07-27T01:44:53.220Z,990.89
2017-07-27T01:45:54.644Z,990.89
2017-07-27T01:46:56.078Z,990.90
2017-07-27T01:47:57.496Z,990.91
2017-07-27T01:48:58.929Z,990.91
2017-07-27T01:50:00.346Z,990.83
2017-07-27T01:51:01.769Z,990.91
2017-07-27T01:52:03.197Z,990.90
2017-07-27T01:53:04.625Z,990.89
2017-07-27T01:54:06.046Z,990.88
2017-07-27T01:55:07.472Z,990.89
2017-07-27T01:56:08.900Z,990.88
2017-07-27T01:57:10.330Z,990.89
2017-07-27T01:58:11.760Z,990.93
2017-07-27T01:59:13.183Z,990.87
2017-07-27T02:00:14.609Z,990.83
2017-07-27T02:01:16.034Z,990.84
2017-07-27T02:02:17.457Z,990.81
2017-07-27T02:03:18.888Z,990.77
2017-07-27T02:04:20.315Z,990.73
2017-07-27T02:05:21.756Z,990.67
2017-07-27T02:06:23.188Z,990.65
2017-07-27T02:07:24.618Z,990.58
2017-07-27T02:08:26.042Z,990.47
2017-07-27T02:09:27.466Z,990.46
2017-07-27T02:10:28.891Z,990.44
2017-07-27T02:11:30.318Z,990.33
2017-07-27T02:12:31.738Z,990.33
2017-07-27T02:13:33.164Z,990.30
2017-07-27T02:14:34.593Z,990.23
2017-07-27T02:15:36.014Z,990.19
2017-07-27T02:16:37.457Z,990.19
2017-07-27T02:17:38.882Z,990.07
2017-07-27T02:18:40.304Z,990.05
2017-07-27T02:19:41.729Z,990.02
2017-07-27T02:20:43.150Z,989.99
2017-07-27T02:21:44.574Z,989.95
2017-07-27T02:22:45.995Z,989.94
2017-07-27T02:23:47.416Z,989.88
2017-07-27T02:24:48.836Z,989.83
2017-07-27T02:25:50.262Z,989.87
2017-07-27T02:26:51.688Z,989.82
2017-07-27T02:27:53.106Z,989.81
2017-07-27T02:28:54.527Z,989.82
2017-07-27T02:29:56.003Z,989.72
2017-07-27T02:30:57.433Z,989.69
2017-07-27T02:31:58.852Z,989.70
2017-07-27T02:33:00.275Z,989.69
2017-07-27T02:34:01.697Z,989.70
2017-07-27T02:35:03.122Z,989.63
2017-07-27T02:36:04.544Z,989.65
2017-07-27T02:37:05.973Z,989.63
2017-07-27T02:38:07.405Z,989.64
2017-07-27T02:39:08.829Z,989.61
2017-07-27T02:40:10.248Z,989.57
2017-07-27T02:41:11.668Z,989.58
2017-07-27T02:42:13.090Z,989.54
2017-07-27T02:43:14.513Z,989.49
2017-07-27T02:44:15.937Z,989.49
2017-07-27T02:45:17.366Z,989.45
2017-07-27T02:46:18.795Z,989.47
2017-07-27T02:47:20.221Z,989.46
2017-07-27T02:48:21.640Z,989.46
2017-07-27T02:49:23.071Z,989.44
2017-07-27T02:50:24.500Z,989.43
2017-07-27T02:51:25.925Z,989.41
2017-07-27T02:52:27.349Z,989.36
2017-07-27T02:53:28.777Z,989.35
2017-07-27T02:54:30.203Z,989.30
2017-07-27T02:55:31.630Z,989.30
2017-07-27T02:56:33.057Z,989.33
2017-07-27T02:57:34.486Z,989.34
2017-07-27T02:58:35.905Z,989.31
2017-07-27T02:59:37.324Z,989.32
2017-07-27T03:00:38.750Z,989.35
2017-07-27T03:01:40.175Z,989.33
2017-07-27T03:02:41.603Z,989.30
2017-07-27T03:03:43.028Z,989.25
2017-07-27T03:04:44.471Z,989.19
2017-07-27T03:05:45.898Z,989.19
2017-07-27T03:06:47.319Z,989.23
2017-07-27T03:07:48.751Z,989.23
2017-07-27T03:08:50.174Z,989.24
2017-07-27T03:09:51.604Z,989.19
2017-07-27T03:10:53.029Z,989.19
2017-07-27T03:11:54.454Z,989.18
2017-07-27T03:12:55.872Z,989.18
2017-07-27T03:13:57.300Z,989.22
2017-07-27T03:14:58.723Z,989.18
2017-07-27T03:16:00.145Z,989.18
2017-07-27T03:17:01.574Z,989.17
2017-07-27T03:18:03.004Z,989.18
2017-07-27T03:19:04.428Z,989.19
2017-07-27T03:20:05.890Z,989.14
2017-07-27T03:21:07.331Z,989.16
2017-07-27T03:22:08.750Z,989.12
2017-07-27T03:23:10.174Z,989.12
2017-07-27T03:24:11.602Z,989.05
2017-07-27T03:25:13.028Z,989.01
2017-07-27T03:26:14.456Z,989.04
2017-07-27T03:27:15.887Z,989.03
2017-07-27T03:28:17.317Z,989.02
2017-07-27T03:29:18.740Z,988.99
2017-07-27T03:30:20.169Z,989.00
2017-07-27T03:31:21.592Z,988.99
2017-07-27T03:32:23.020Z,988.98
2017-07-27T03:33:24.442Z,989.02
2017-07-27T03:34:25.875Z,989.02
2017-07-27T03:35:27.297Z,989.01
2017-07-27T03:36:28.720Z,989.05
2017-07-27T03:37:30.146Z,989.04
2017-07-27T03:38:31.572Z,989.02
2017-07-27T03:39:32.997Z,989.03
2017-07-27T03:40:34.416Z,989.02
2017-07-27T03:41:35.858Z,989.05
2017-07-27T03:42:37.278Z,989.04
2017-07-27T03:43:38.707Z,989.10
2017-07-27T03:44:40.133Z,989.04
2017-07-27T03:45:41.556Z,989.03
2017-07-27T03:46:42.977Z,989.09
2017-07-27T03:47:44.401Z,989.13
2017-07-27T03:48:45.829Z,989.12
2017-07-27T03:49:47.250Z,989.14
2017-07-27T03:50:48.679Z,989.19
2017-07-27T03:51:50.107Z,989.19
2017-07-27T03:52:51.537Z,989.18
2017-07-27T03:53:52.966Z,989.20
2017-07-27T03:54:54.390Z,989.22
2017-07-27T03:55:55.816Z,989.24
2017-07-27T03:56:57.245Z,989.23
2017-07-27T03:57:58.673Z,989.26
2017-07-27T03:59:00.101Z,989.21
2017-07-27T04:00:01.538Z,989.19
2017-07-27T04:01:02.963Z,989.22
2017-07-27T04:02:04.387Z,989.22
2017-07-27T04:03:05.814Z,989.17
2017-07-27T04:04:07.238Z,989.17
2017-07-27T04:05:08.666Z,989.07
2017-07-27T04:06:10.092Z,989.14
2017-07-27T04:07:11.519Z,989.17
2017-07-27T04:08:12.941Z,989.09
2017-07-27T04:09:14.364Z,989.06
2017-07-27T04:10:15.799Z,989.02
2017-07-27T04:11:17.222Z,989.08
2017-07-27T04:12:18.645Z,989.06
2017-07-27T04:13:20.068Z,989.05
2017-07-27T04:14:21.499Z,989.03
2017-07-27T04:15:22.931Z,989.01
2017-07-27T04:16:24.351Z,989.02
2017-07-27T04:17:25.776Z,988.96
2017-07-27T04:18:27.199Z,989.05
2017-07-27T04:19:28.627Z,989.07
2017-07-27T04:20:30.060Z,989.12
2017-07-27T04:21:31.491Z,989.14
2017-07-27T04:22:32.917Z,989.16
2017-07-27T04:23:34.346Z,989.18
2017-07-27T04:24:35.780Z,989.15
2017-07-27T04:25:37.210Z,989.13
2017-07-27T04:26:38.633Z,989.15
2017-07-27T04:27:40.055Z,989.13
2017-07-27T04:28:41.486Z,989.14
2017-07-27T04:29:42.921Z,989.14
2017-07-27T04:30:44.349Z,989.21
2017-07-27T04:31:45.782Z,989.15
2017-07-27T04:32:47.204Z,989.17
2017-07-27T04:33:48.632Z,989.24
2017-07-27T04:34:50.059Z,989.20
2017-07-27T04:35:51.490Z,989.20
2017-07-27T04:36:52.919Z,989.26
2017-07-27T04:37:54.351Z,989.19
2017-07-27T04:38:55.776Z,989.23
2017-07-27T04:39:57.207Z,989.16
2017-07-27T04:40:58.638Z,989.21
2017-07-27T04:42:00.062Z,989.24
2017-07-27T04:43:01.491Z,989.17
2017-07-27T04:44:02.921Z,989.21
2017-07-27T04:45:04.354Z,989.19
2017-07-27T04:46:05.786Z,989.18
2017-07-27T04:47:07.213Z,989.21
2017-07-27T04:48:08.644Z,989.20
2017-07-27T04:49:10.071Z,989.26
2017-07-27T04:50:11.499Z,989.23
2017-07-27T04:51:12.921Z,989.20
2017-07-27T04:52:14.346Z,989.19
2017-07-27T04:53:15.784Z,989.14
2017-07-27T04:54:17.209Z,989.08
2017-07-27T04:55:18.639Z,989.11
2017-07-27T04:56:20.066Z,989.11
2017-07-27T04:57:21.497Z,989.12
2017-07-27T04:58:22.924Z,989.11
2017-07-27T04:59:24.345Z,989.13
2017-07-27T05:00:25.774Z,989.15
2017-07-27T05:01:27.202Z,989.16
2017-07-27T05:02:28.634Z,989.15
2017-07-27T05:03:30.080Z,989.19
2017-07-27T05:04:31.512Z,989.19
2017-07-27T05:05:32.936Z,989.18
2017-07-27T05:06:34.372Z,989.16
2017-07-27T05:07:35.801Z,989.13
2017-07-27T05:08:37.230Z,989.19
2017-07-27T05:09:38.662Z,989.25
2017-07-27T05:10:40.088Z,989.29
2017-07-27T05:11:41.524Z,989.31
2017-07-27T05:12:42.951Z,989.27
2017-07-27T05:13:44.382Z,989.31
2017-07-27T05:14:45.815Z,989.32
2017-07-27T05:15:47.246Z,989.34
2017-07-27T05:16:48.676Z,989.37
2017-07-27T05:17:50.105Z,989.41
2017-07-27T05:18:51.523Z,989.36
2017-07-27T05:19:52.957Z,989.41
2017-07-27T05:20:54.372Z,989.37
2017-07-27T05:21:55.800Z,989.36
2017-07-27T05:22:57.227Z,989.33
2017-07-27T05:23:58.658Z,989.33
2017-07-27T05:25:00.109Z,989.29
2017-07-27T05:26:01.540Z,989.32
2017-07-27T05:27:02.964Z,989.46
2017-07-27T05:28:04.398Z,989.46
2017-07-27T05:29:05.839Z,989.44
2017-07-27T05:30:07.280Z,989.42
2017-07-27T05:31:08.703Z,989.37
2017-07-27T05:32:10.127Z,989.39
2017-07-27T05:33:11.570Z,989.31
2017-07-27T05:34:13.006Z,989.26
2017-07-27T05:35:14.433Z,989.20
2017-07-27T05:36:15.872Z,989.15
2017-07-27T05:37:17.305Z,989.19
2017-07-27T05:38:18.727Z,989.22
2017-07-27T05:39:20.154Z,989.26
2017-07-27T05:40:21.592Z,989.26
2017-07-27T05:41:23.023Z,989.24
2017-07-27T05:42:24.455Z,989.24
2017-07-27T05:43:25.890Z,989.23
2017-07-27T05:44:27.321Z,989.25
2017-07-27T05:45:28.746Z,989.24
2017-07-27T05:46:30.180Z,989.20
2017-07-27T05:47:31.602Z,989.30
2017-07-27T05:48:33.024Z,989.29
2017-07-27T05:49:34.459Z,989.27
2017-07-27T05:50:35.888Z,989.28
2017-07-27T05:51:37.320Z,989.29
2017-07-27T05:52:38.753Z,989.29
2017-07-27T05:53:40.180Z,989.32
2017-07-27T05:54:41.610Z,989.39
2017-07-27T05:55:43.035Z,989.34
2017-07-27T05:56:44.473Z,989.41
2017-07-27T05:57:45.900Z,989.40
2017-07-27T05:58:47.330Z,989.42
2017-07-27T05:59:48.758Z,989.37
2017-07-27T06:00:50.183Z,989.36
2017-07-27T06:01:51.619Z,989.36
2017-07-27T06:02:53.048Z,989.33
2017-07-27T06:03:54.476Z,989.29
2017-07-27T06:04:55.901Z,989.35
2017-07-27T06:05:57.342Z,989.37
2017-07-27T06:06:58.783Z,989.34
2017-07-27T06:08:00.199Z,989.38
2017-07-27T06:09:01.628Z,989.37
2017-07-27T06:10:03.061Z,989.44
2017-07-27T06:11:04.488Z,989.47
2017-07-27T06:12:05.912Z,989.53
2017-07-27T06:13:07.342Z,989.58
2017-07-27T06:14:08.774Z,989.61
2017-07-27T06:15:10.204Z,989.64
2017-07-27T06:16:11.634Z,989.71
2017-07-27T06:17:13.057Z,989.67
2017-07-27T06:18:14.486Z,989.65
2017-07-27T06:19:15.915Z,989.60
2017-07-27T06:20:17.382Z,989.62
2017-07-27T06:21:18.818Z,989.64
2017-07-27T06:22:20.255Z,989.67
2017-07-27T06:23:21.682Z,989.64
2017-07-27T06:24:23.111Z,989.72
2017-07-27T06:25:24.540Z,989.72
2017-07-27T06:26:25.971Z,989.72
2017-07-27T06:27:27.397Z,989.80
2017-07-27T06:28:28.822Z,989.80
2017-07-27T06:29:30.255Z,989.84
2017-07-27T06:30:31.679Z,989.85
2017-07-27T06:31:33.112Z,989.90
2017-07-27T06:32:34.531Z,989.85
2017-07-27T06:33:35.963Z,989.77
2017-07-27T06:34:37.389Z,989.86
2017-07-27T06:35:38.825Z,989.85
2017-07-27T06:36:40.250Z,989.88
2017-07-27T06:37:41.680Z,989.90
2017-07-27T06:38:43.125Z,989.98
2017-07-27T06:39:44.553Z,989.93
2017-07-27T06:40:45.988Z,989.94
2017-07-27T06:41:47.409Z,989.98
2017-07-27T06:42:48.840Z,989.95
2017-07-27T06:43:50.270Z,989.92
2017-07-27T06:44:51.706Z,989.93
2017-07-27T06:45:53.132Z,989.97
2017-07-27T06:46:54.559Z,990.00
2017-07-27T06:47:55.990Z,990.05
2017-07-27T06:48:57.474Z,990.08
2017-07-27T06:49:58.902Z,990.17
2017-07-27T06:51:00.332Z,990.15
2017-07-27T06:52:01.773Z,990.13
2017-07-27T06:53:03.204Z,990.11
2017-07-27T06:54:04.630Z,990.17
2017-07-27T06:55:06.060Z,990.20
2017-07-27T06:56:07.490Z,990.23
2017-07-27T06:57:08.915Z,990.25
2017-07-27T06:58:10.353Z,990.24
2017-07-27T06:59:11.782Z,990.20
2017-07-27T07:00:13.206Z,990.20
2017-07-27T07:01:14.642Z,990.18
2017-07-27T07:02:16.072Z,990.16
2017-07-27T07:03:17.504Z,990.09
2017-07-27T07:04:18.929Z,990.09
2017-07-27T07:05:20.361Z,990.06
2017-07-27T07:06:21.792Z,990.04
2017-07-27T07:07:23.218Z,990.04
2017-07-27T07:08:24.651Z,990.06
2017-07-27T07:09:26.084Z,990.11
2017-07-27T07:10:27.513Z,990.08
2017-07-27T07:11:28.944Z,990.11
2017-07-27T07:12:30.372Z,990.12
2017-07-27T07:13:31.798Z,990.10
2017-07-27T07:14:33.239Z,990.10
2017-07-27T07:15:34.672Z,990.17
2017-07-27T07:16:36.098Z,990.23
2017-07-27T07:17:37.524Z,990.25
2017-07-27T07:18:38.952Z,990.28
2017-07-27T07:19:40.384Z,990.24
2017-07-27T07:20:41.807Z,990.29
2017-07-27T07:21:43.232Z,990.32
2017-07-27T07:22:44.665Z,990.35
2017-07-27T07:23:46.094Z,990.37
2017-07-27T07:24:47.528Z,990.40
2017-07-27T07:25:48.961Z,990.34
2017-07-27T07:26:50.389Z,990.35
2017-07-27T07:27:51.816Z,990.37
2017-07-27T07:28:53.248Z,990.39
2017-07-27T07:29:54.680Z,990.42
2017-07-27T07:30:56.123Z,990.46
2017-07-27T07:31:57.555Z,990.53
2017-07-27T07:32:58.993Z,990.59
2017-07-27T07:34:00.423Z,990.58
2017-07-27T07:35:01.854Z,990.61
2017-07-27T07:36:04.055Z,990.65
2017-07-27T07:37:05.495Z,990.66
2017-07-27T07:38:06.926Z,990.66
2017-07-27T07:39:08.354Z,990.60
2017-07-27T07:40:09.788Z,990.61
2017-07-27T07:41:11.218Z,990.64
2017-07-27T07:42:12.638Z,990.74
2017-07-27T07:43:14.067Z,990.71
2017-07-27T07:44:15.533Z,990.76
2017-07-27T07:45:16.973Z,990.73
2017-07-27T07:46:18.411Z,990.68
2017-07-27T07:47:19.852Z,990.67
2017-07-27T07:48:21.299Z,990.63
2017-07-27T07:49:22.722Z,990.59
2017-07-27T07:50:24.165Z,990.63
2017-07-27T07:51:25.687Z,990.60
2017-07-27T07:52:27.112Z,990.58
2017-07-27T07:53:28.625Z,990.60
2017-07-27T07:54:30.050Z,990.64
2017-07-27T07:55:31.503Z,990.67
2017-07-27T07:56:32.921Z,990.80
2017-07-27T07:57:34.347Z,990.92
2017-07-27T07:58:35.782Z,990.91
2017-07-27T07:59:37.227Z,990.93
2017-07-27T08:00:38.646Z,990.95
2017-07-27T08:01:40.074Z,990.96
2017-07-27T08:02:41.526Z,990.96
2017-07-27T08:03:42.954Z,990.95
2017-07-27T08:04:44.382Z,990.94
2017-07-27T08:05:45.830Z,990.96
2017-07-27T08:06:47.261Z,990.95
2017-07-27T08:07:48.694Z,990.99
2017-07-27T08:08:50.123Z,991.06
2017-07-27T08:09:51.634Z,991.14
2017-07-27T08:10:53.075Z,991.18
2017-07-27T08:11:54.502Z,991.20
2017-07-27T08:12:55.970Z,991.22
2017-07-27T08:13:57.438Z,991.26
2017-07-27T08:14:58.864Z,991.19
2017-07-27T08:16:00.297Z,991.29
2017-07-27T08:17:01.741Z,991.37
2017-07-27T08:18:03.173Z,991.41
2017-07-27T08:19:04.604Z,991.63
2017-07-27T08:20:06.104Z,991.64
2017-07-27T08:21:07.548Z,991.62
2017-07-27T08:22:08.986Z,991.73
2017-07-27T08:23:10.415Z,991.66
2017-07-27T08:24:11.864Z,991.64
2017-07-27T08:25:13.295Z,991.64
2017-07-27T08:26:14.719Z,991.58
2017-07-27T08:27:16.152Z,991.62
2017-07-27T08:28:17.591Z,991.61
2017-07-27T08:29:19.017Z,991.60
2017-07-27T08:30:20.458Z,991.70
2017-07-27T08:31:21.898Z,991.84
2017-07-27T08:32:23.356Z,991.79
2017-07-27T08:33:24.788Z,991.80
2017-07-27T08:34:26.220Z,991.78
2017-07-27T08:35:27.683Z,991.91
2017-07-27T08:36:29.120Z,992.01
2017-07-27T08:37:30.550Z,991.91
2017-07-27T08:38:31.986Z,991.91
2017-07-27T08:39:33.427Z,991.90
2017-07-27T08:40:34.857Z,992.14
2017-07-27T08:41:36.287Z,992.13
2017-07-27T08:42:37.728Z,992.18
2017-07-27T08:43:39.175Z,992.26
2017-07-27T08:44:40.606Z,992.07
2017-07-27T08:45:42.040Z,991.88
2017-07-27T08:46:43.469Z,992.06
2017-07-27T08:47:44.901Z,992.24
2017-07-27T08:48:46.334Z,992.25
2017-07-27T08:49:47.765Z,992.21
2017-07-27T08:50:49.200Z,992.39
2017-07-27T08:51:50.634Z,992.46
2017-07-27T08:52:52.059Z,992.37
2017-07-27T08:53:53.493Z,992.20
2017-07-27T08:54:54.915Z,992.01
2017-07-27T08:55:56.350Z,991.95
2017-07-27T08:56:57.774Z,992.21
2017-07-27T08:57:59.218Z,992.43
2017-07-27T08:59:00.647Z,992.41
2017-07-27T09:00:02.075Z,992.30
2017-07-27T09:01:03.507Z,992.33
2017-07-27T09:02:04.935Z,992.24
2017-07-27T09:03:06.373Z,992.37
2017-07-27T09:04:07.805Z,992.21
2017-07-27T09:05:09.242Z,992.43
2017-07-27T09:06:10.670Z,992.50
2017-07-27T09:07:12.098Z,992.51
2017-07-27T09:08:13.541Z,992.55
2017-07-27T09:09:14.971Z,992.48
2017-07-27T09:10:16.409Z,992.47
2017-07-27T09:11:17.842Z,992.44
2017-07-27T09:12:19.278Z,992.52
2017-07-27T09:13:21.287Z,992.63
2017-07-27T09:14:22.725Z,992.57
2017-07-27T09:15:24.162Z,992.85
2017-07-27T09:16:25.605Z,992.89
2017-07-27T09:17:27.036Z,992.96
2017-07-27T09:18:28.469Z,992.78
2017-07-27T09:19:29.909Z,993.06
2017-07-27T09:20:31.332Z,992.81
2017-07-27T09:21:32.772Z,992.90
2017-07-27T09:22:34.867Z,992.99
2017-07-27T09:23:36.297Z,992.78
2017-07-27T09:24:37.738Z,992.67
2017-07-27T09:25:39.173Z,992.60
2017-07-27T09:26:40.601Z,992.52
2017-07-27T09:27:42.046Z,992.67
2017-07-27T09:28:43.474Z,992.70
2017-07-27T09:29:44.915Z,992.87
2017-07-27T09:30:46.341Z,993.14
2017-07-27T09:31:47.776Z,993.01
2017-07-27T09:32:49.211Z,993.05
2017-07-27T09:33:50.654Z,992.93
2017-07-27T09:34:52.097Z,992.91
2017-07-27T09:35:53.541Z,992.84
2017-07-27T09:36:54.972Z,992.80
2017-07-27T09:37:56.408Z,992.77
2017-07-27T09:38:57.844Z,992.86
2017-07-27T09:39:59.271Z,992.89
2017-07-27T09:41:00.715Z,992.68
2017-07-27T09:42:02.161Z,992.65
2017-07-27T09:43:03.583Z,992.83
2017-07-27T09:44:05.023Z,992.92
2017-07-27T09:45:06.461Z,992.95
2017-07-27T09:46:07.885Z,993.22
2017-07-27T09:47:09.321Z,993.06
2017-07-27T09:48:10.761Z,992.88
2017-07-27T09:49:12.198Z,993.15
2017-07-27T09:50:13.634Z,993.22
2017-07-27T09:51:15.077Z,994.26
2017-07-27T09:52:16.506Z,994.22
2017-07-27T09:53:17.938Z,994.55
2017-07-27T09:54:19.374Z,994.34
2017-07-27T09:55:20.803Z,994.29
2017-07-27T09:56:22.234Z,994.33
2017-07-27T09:57:23.684Z,994.46
2017-07-27T09:58:25.111Z,994.22
2017-07-27T09:59:26.545Z,993.97
2017-07-27T10:00:28.017Z,994.21
2017-07-27T10:01:29.455Z,994.02
2017-07-27T10:02:30.889Z,994.01
2017-07-27T10:03:32.335Z,994.68
2017-07-27T10:04:33.786Z,994.96
2017-07-27T10:05:35.219Z,994.97
2017-07-27T10:06:36.660Z,995.50
2017-07-27T10:07:38.089Z,995.91
2017-07-27T10:08:39.534Z,996.17
2017-07-27T10:09:40.970Z,996.21
2017-07-27T10:10:42.403Z,996.35
2017-07-27T10:11:43.831Z,996.31
2017-07-27T10:12:45.274Z,996.16
2017-07-27T10:13:46.708Z,996.12
2017-07-27T10:14:48.140Z,996.27
2017-07-27T10:15:49.576Z,996.15
2017-07-27T10:16:51.042Z,996.26
2017-07-27T10:17:52.457Z,996.62
2017-07-27T10:18:53.884Z,996.53
2017-07-27T10:19:55.333Z,996.41
2017-07-27T10:20:56.764Z,996.57
2017-07-27T10:21:58.202Z,996.50
2017-07-27T10:22:59.630Z,996.45
2017-07-27T10:24:01.062Z,996.31
2017-07-27T10:25:03.472Z,996.06
2017-07-27T10:26:04.919Z,996.32
2017-07-27T10:27:06.354Z,996.07
2017-07-27T10:28:07.784Z,995.75
2017-07-27T10:29:09.227Z,996.03
2017-07-27T10:30:10.667Z,996.11
2017-07-27T10:31:12.097Z,996.31
2017-07-27T10:32:13.533Z,996.34
2017-07-27T10:33:14.973Z,996.45
2017-07-27T10:34:16.418Z,996.33
2017-07-27T10:35:17.851Z,996.30
2017-07-27T10:36:19.284Z,996.49
2017-07-27T10:37:20.712Z,996.45
2017-07-27T10:38:22.145Z,996.43
2017-07-27T10:39:23.581Z,996.48
2017-07-27T10:40:25.011Z,996.49
2017-07-27T10:41:26.444Z,996.15
2017-07-27T10:42:27.883Z,996.28
2017-07-27T10:43:29.314Z,996.04
2017-07-27T10:44:30.750Z,996.13
2017-07-27T10:45:32.179Z,996.07
2017-07-27T10:46:33.611Z,996.40
2017-07-27T10:47:35.052Z,996.17
2017-07-27T10:48:36.482Z,996.35
2017-07-27T10:49:37.935Z,996.41
2017-07-27T10:50:39.376Z,996.41
2017-07-27T10:51:40.800Z,996.66
2017-07-27T10:52:42.231Z,996.63
2017-07-27T10:53:43.662Z,996.59
2017-07-27T10:54:45.087Z,996.76
2017-07-27T10:55:46.527Z,996.92
2017-07-27T10:56:47.972Z,996.99
2017-07-27T10:57:49.411Z,996.88
2017-07-27T10:58:50.840Z,996.90
2017-07-27T10:59:52.273Z,996.93
2017-07-27T11:00:53.702Z,997.03
2017-07-27T11:01:55.132Z,996.89
2017-07-27T11:02:56.562Z,997.06
2017-07-27T11:03:57.998Z,997.15
2017-07-27T11:04:59.430Z,997.25
2017-07-27T11:06:00.867Z,997.26
2017-07-27T11:07:02.294Z,997.16
2017-07-27T11:08:03.741Z,997.06
2017-07-27T11:09:05.281Z,997.05
2017-07-27T11:10:06.717Z,997.05
2017-07-27T11:11:08.173Z,997.07
2017-07-27T11:12:09.603Z,997.03
2017-07-27T11:13:11.042Z,997.02
2017-07-27T11:14:12.483Z,997.06
2017-07-27T11:15:13.927Z,997.12
2017-07-27T11:16:15.360Z,997.16
2017-07-27T11:17:16.795Z,997.16
2017-07-27T11:18:18.238Z,997.18
2017-07-27T11:19:19.662Z,997.23
2017-07-27T11:20:21.098Z,997.26
2017-07-27T11:21:22.538Z,997.27
2017-07-27T11:22:23.980Z,997.29
2017-07-27T11:23:25.415Z,997.26
2017-07-27T11:24:26.845Z,997.30
2017-07-27T11:25:28.270Z,997.30
2017-07-27T11:26:29.703Z,997.33
2017-07-27T11:27:31.132Z,997.31
2017-07-27T11:28:32.566Z,997.33
2017-07-27T11:29:33.991Z,997.37
2017-07-27T11:30:35.426Z,997.42
2017-07-27T11:31:38.009Z,997.44
2017-07-27T11:32:39.444Z,997.40
2017-07-27T11:33:40.877Z,997.29
2017-07-27T11:34:42.301Z,997.46
2017-07-27T11:35:43.734Z,997.50
2017-07-27T11:36:45.175Z,997.51
2017-07-27T11:37:46.602Z,997.57
2017-07-27T11:38:48.031Z,997.56
2017-07-27T11:39:49.463Z,997.59
2017-07-27T11:40:50.905Z,997.56
2017-07-27T11:41:52.336Z,997.53
2017-07-27T11:42:53.767Z,997.52
2017-07-27T11:43:55.206Z,997.50
2017-07-27T11:44:56.634Z,997.46
2017-07-27T11:45:58.087Z,997.45
2017-07-27T11:46:59.517Z,997.53
2017-07-27T11:48:00.946Z,997.56
2017-07-27T11:49:02.384Z,997.55
2017-07-27T11:50:03.813Z,997.59
2017-07-27T11:51:05.253Z,997.62
2017-07-27T11:52:06.682Z,997.50
2017-07-27T11:53:08.105Z,997.44
2017-07-27T11:54:09.540Z,997.44
2017-07-27T11:55:10.974Z,997.39
2017-07-27T11:56:12.409Z,997.39
2017-07-27T11:57:13.839Z,997.39
2017-07-27T11:58:15.272Z,997.31
2017-07-27T11:59:16.705Z,997.31
2017-07-27T12:00:18.141Z,997.33
2017-07-27T12:01:19.582Z,997.30
2017-07-27T12:02:21.013Z,997.28
2017-07-27T12:03:22.443Z,997.24
2017-07-27T12:04:23.890Z,997.37
2017-07-27T12:05:25.316Z,997.33
2017-07-27T12:06:26.765Z,997.37
2017-07-27T12:07:28.192Z,997.29
2017-07-27T12:08:29.623Z,997.30
2017-07-27T12:09:31.064Z,997.29
2017-07-27T12:10:32.494Z,997.30
2017-07-27T12:11:33.933Z,997.29
2017-07-27T12:12:35.363Z,997.27
2017-07-27T12:13:36.802Z,997.38
2017-07-27T12:14:38.229Z,997.47
2017-07-27T12:15:39.662Z,997.40
2017-07-27T12:16:41.092Z,997.50
2017-07-27T12:17:42.523Z,997.52
2017-07-27T12:18:43.952Z,997.58
2017-07-27T12:19:45.386Z,997.58
2017-07-27T12:20:46.821Z,997.59
2017-07-27T12:21:48.252Z,997.59
2017-07-27T12:22:49.705Z,997.61
2017-07-27T12:23:51.134Z,997.64
2017-07-27T12:24:52.569Z,997.65
2017-07-27T12:25:54.004Z,997.55
2017-07-27T12:26:55.434Z,997.54
2017-07-27T12:27:56.869Z,997.52
2017-07-27T12:28:58.294Z,997.57
2017-07-27T12:29:59.727Z,997.59
2017-07-27T12:31:01.166Z,997.62
2017-07-27T12:32:02.599Z,997.65
2017-07-27T12:33:04.029Z,997.66
2017-07-27T12:34:05.460Z,997.58
2017-07-27T12:35:06.896Z,997.55
2017-07-27T12:36:08.329Z,997.49
2017-07-27T12:37:09.762Z,997.53
2017-07-27T12:38:11.194Z,997.49
2017-07-27T12:39:12.633Z,997.44
2017-07-27T12:40:14.064Z,997.39
2017-07-27T12:41:15.503Z,997.45
2017-07-27T12:42:16.931Z,997.44
2017-07-27T12:43:18.364Z,997.33
2017-07-27T12:44:19.794Z,997.28
2017-07-27T12:45:21.224Z,997.29
2017-07-27T12:46:22.660Z,997.33